sensor_id;sensor_type;location;lat;lon;timestamp;P1;durP1;ratioP1;P2;durP2;ratioP2
8540;SDS011;4308;51.294;6.590;2023-05-09T00:01:11;15.87;;;14.43;;
8540;SDS011;4308;51.294;6.590;2023-05-09T00:03:39;15.67;;;13.70;;
8540;SDS011;4308;51.294;6.590;2023-05-09T00:06:07;14.83;;;13.53;;
8540;SDS011;4308;51.294;6.590;2023-05-09T00:08:35;15.27;;;13.70;;
8540;SDS011;4308;51.294;6.590;2023-05-09T00:11:02;14.93;;;13.53;;
8540;SDS011;4308;51.294;6.590;2023-05-09T00:13:30;15.67;;;14.10;;
8540;SDS011;4308;51.294;6.590;2023-05-09T00:15:58;16.10;;;14.43;;
8540;SDS011;4308;51.294;6.590;2023-05-09T00:18:25;15.20;;;13.70;;
8540;SDS011;4308;51.294;6.590;2023-05-09T00:20:53;15.60;;;14.10;;
8540;SDS011;4308;51.294;6.590;2023-05-09T00:23:21;16.50;;;14.90;;
8540;SDS011;4308;51.294;6.590;2023-05-09T00:25:48;16.87;;;15.10;;
8540;SDS011;4308;51.294;6.590;2023-05-09T00:28:16;15.40;;;13.93;;
8540;SDS011;4308;51.294;6.590;2023-05-09T00:30:43;16.30;;;14.70;;
8540;SDS011;4308;51.294;6.590;2023-05-09T00:33:13;16.40;;;14.70;;
8540;SDS011;4308;51.294;6.590;2023-05-09T00:35:41;17.13;;;15.43;;
8540;SDS011;4308;51.294;6.590;2023-05-09T00:38:09;16.37;;;14.67;;
8540;SDS011;4308;51.294;6.590;2023-05-09T00:40:36;16.10;;;14.50;;
8540;SDS011;4308;51.294;6.590;2023-05-09T00:43:04;17.67;;;15.83;;
8540;SDS011;4308;51.294;6.590;2023-05-09T00:45:31;16.47;;;14.77;;
8540;SDS011;4308;51.294;6.590;2023-05-09T00:47:59;18.70;;;15.83;;
8540;SDS011;4308;51.294;6.590;2023-05-09T00:50:27;16.17;;;14.57;;
8540;SDS011;4308;51.294;6.590;2023-05-09T00:52:54;16.87;;;14.60;;
8540;SDS011;4308;51.294;6.590;2023-05-09T00:55:22;16.40;;;14.73;;
8540;SDS011;4308;51.294;6.590;2023-05-09T00:57:49;17.27;;;15.53;;
8540;SDS011;4308;51.294;6.590;2023-05-09T01:00:17;17.83;;;16.10;;
8540;SDS011;4308;51.294;6.590;2023-05-09T01:02:49;17.10;;;15.30;;
8540;SDS011;4308;51.294;6.590;2023-05-09T01:05:17;16.87;;;15.33;;
8540;SDS011;4308;51.294;6.590;2023-05-09T01:07:48;17.63;;;15.67;;
8540;SDS011;4308;51.294;6.590;2023-05-09T01:10:22;16.63;;;14.93;;
8540;SDS011;4308;51.294;6.590;2023-05-09T01:13:01;17.07;;;15.37;;
8540;SDS011;4308;51.294;6.590;2023-05-09T01:15:38;15.87;;;14.30;;
8540;SDS011;4308;51.294;6.590;2023-05-09T01:20:38;17.30;;;15.60;;
8540;SDS011;4308;51.294;6.590;2023-05-09T01:23:58;18.53;;;15.40;;
8540;SDS011;4308;51.294;6.590;2023-05-09T01:30:52;19.00;;;17.20;;
8540;SDS011;4308;51.294;6.590;2023-05-09T01:33:19;18.37;;;16.47;;
8540;SDS011;4308;51.294;6.590;2023-05-09T01:35:50;18.97;;;16.70;;
8540;SDS011;4308;51.294;6.590;2023-05-09T01:38:20;18.10;;;16.30;;
8540;SDS011;4308;51.294;6.590;2023-05-09T01:40:51;22.17;;;19.87;;
8540;SDS011;4308;51.294;6.590;2023-05-09T01:43:20;22.57;;;20.27;;
8540;SDS011;4308;51.294;6.590;2023-05-09T01:45:49;25.20;;;22.50;;
8540;SDS011;4308;51.294;6.590;2023-05-09T01:48:17;26.97;;;23.63;;
8540;SDS011;4308;51.294;6.590;2023-05-09T01:50:45;31.63;;;24.50;;
8540;SDS011;4308;51.294;6.590;2023-05-09T01:53:13;32.83;;;26.03;;
8540;SDS011;4308;51.294;6.590;2023-05-09T01:55:43;36.60;;;29.03;;
8540;SDS011;4308;51.294;6.590;2023-05-09T01:58:11;42.27;;;30.77;;
8540;SDS011;4308;51.294;6.590;2023-05-09T02:00:39;42.80;;;32.47;;
8540;SDS011;4308;51.294;6.590;2023-05-09T02:03:07;53.77;;;37.37;;
8540;SDS011;4308;51.294;6.590;2023-05-09T02:05:35;60.30;;;41.57;;
8540;SDS011;4308;51.294;6.590;2023-05-09T02:08:02;68.90;;;44.57;;
8540;SDS011;4308;51.294;6.590;2023-05-09T02:10:30;66.77;;;43.23;;
8540;SDS011;4308;51.294;6.590;2023-05-09T02:12:59;69.73;;;43.90;;
8540;SDS011;4308;51.294;6.590;2023-05-09T02:15:26;73.90;;;45.60;;
8540;SDS011;4308;51.294;6.590;2023-05-09T02:17:55;76.97;;;47.70;;
8540;SDS011;4308;51.294;6.590;2023-05-09T02:20:22;76.20;;;47.57;;
8540;SDS011;4308;51.294;6.590;2023-05-09T02:22:50;78.43;;;47.10;;
8540;SDS011;4308;51.294;6.590;2023-05-09T02:25:18;83.60;;;49.97;;
8540;SDS011;4308;51.294;6.590;2023-05-09T02:27:45;80.10;;;48.57;;
8540;SDS011;4308;51.294;6.590;2023-05-09T02:30:18;80.10;;;48.93;;
8540;SDS011;4308;51.294;6.590;2023-05-09T02:32:47;77.37;;;48.57;;
8540;SDS011;4308;51.294;6.590;2023-05-09T02:35:16;85.53;;;51.63;;
8540;SDS011;4308;51.294;6.590;2023-05-09T02:37:44;91.10;;;52.20;;
8540;SDS011;4308;51.294;6.590;2023-05-09T02:40:12;84.80;;;52.10;;
8540;SDS011;4308;51.294;6.590;2023-05-09T02:42:40;85.33;;;51.93;;
8540;SDS011;4308;51.294;6.590;2023-05-09T02:45:07;89.17;;;53.03;;
8540;SDS011;4308;51.294;6.590;2023-05-09T02:47:35;91.50;;;53.83;;
8540;SDS011;4308;51.294;6.590;2023-05-09T02:50:03;84.87;;;51.50;;
8540;SDS011;4308;51.294;6.590;2023-05-09T02:52:31;89.57;;;52.80;;
8540;SDS011;4308;51.294;6.590;2023-05-09T02:54:59;83.20;;;51.20;;
8540;SDS011;4308;51.294;6.590;2023-05-09T02:57:26;90.47;;;54.47;;
8540;SDS011;4308;51.294;6.590;2023-05-09T02:59:54;83.90;;;51.97;;
8540;SDS011;4308;51.294;6.590;2023-05-09T03:02:21;84.37;;;50.80;;
8540;SDS011;4308;51.294;6.590;2023-05-09T03:04:49;91.03;;;52.57;;
8540;SDS011;4308;51.294;6.590;2023-05-09T03:07:17;86.37;;;52.13;;
8540;SDS011;4308;51.294;6.590;2023-05-09T03:09:44;94.70;;;53.37;;
8540;SDS011;4308;51.294;6.590;2023-05-09T03:12:12;88.63;;;53.33;;
8540;SDS011;4308;51.294;6.590;2023-05-09T03:14:39;82.33;;;50.30;;
8540;SDS011;4308;51.294;6.590;2023-05-09T03:17:07;81.33;;;49.63;;
8540;SDS011;4308;51.294;6.590;2023-05-09T03:19:34;80.57;;;47.93;;
8540;SDS011;4308;51.294;6.590;2023-05-09T03:22:02;76.63;;;46.63;;
8540;SDS011;4308;51.294;6.590;2023-05-09T03:24:30;77.27;;;45.57;;
8540;SDS011;4308;51.294;6.590;2023-05-09T03:26:57;67.30;;;42.07;;
8540;SDS011;4308;51.294;6.590;2023-05-09T03:29:25;68.07;;;43.83;;
8540;SDS011;4308;51.294;6.590;2023-05-09T03:31:52;66.70;;;41.43;;
8540;SDS011;4308;51.294;6.590;2023-05-09T03:34:20;60.20;;;39.87;;
8540;SDS011;4308;51.294;6.590;2023-05-09T03:36:47;66.87;;;41.43;;
8540;SDS011;4308;51.294;6.590;2023-05-09T03:39:15;57.77;;;39.83;;
8540;SDS011;4308;51.294;6.590;2023-05-09T03:41:43;62.70;;;40.57;;
8540;SDS011;4308;51.294;6.590;2023-05-09T03:44:10;65.10;;;41.23;;
8540;SDS011;4308;51.294;6.590;2023-05-09T03:46:38;61.00;;;40.03;;
8540;SDS011;4308;51.294;6.590;2023-05-09T03:49:05;62.43;;;37.60;;
8540;SDS011;4308;51.294;6.590;2023-05-09T03:51:33;62.27;;;39.57;;
8540;SDS011;4308;51.294;6.590;2023-05-09T03:54:03;64.93;;;39.63;;
8540;SDS011;4308;51.294;6.590;2023-05-09T03:56:30;61.17;;;39.53;;
8540;SDS011;4308;51.294;6.590;2023-05-09T03:58:58;65.23;;;39.83;;
8540;SDS011;4308;51.294;6.590;2023-05-09T04:01:25;64.47;;;40.17;;
8540;SDS011;4308;51.294;6.590;2023-05-09T04:03:53;60.47;;;40.57;;
8540;SDS011;4308;51.294;6.590;2023-05-09T04:06:21;57.67;;;37.27;;
8540;SDS011;4308;51.294;6.590;2023-05-09T04:08:48;60.53;;;38.00;;
8540;SDS011;4308;51.294;6.590;2023-05-09T04:11:16;64.20;;;39.07;;
8540;SDS011;4308;51.294;6.590;2023-05-09T04:13:43;63.03;;;38.67;;
8540;SDS011;4308;51.294;6.590;2023-05-09T04:16:11;58.77;;;37.63;;
8540;SDS011;4308;51.294;6.590;2023-05-09T04:18:39;54.57;;;36.50;;
8540;SDS011;4308;51.294;6.590;2023-05-09T04:21:06;57.07;;;36.70;;
8540;SDS011;4308;51.294;6.590;2023-05-09T04:23:34;49.73;;;33.97;;
8540;SDS011;4308;51.294;6.590;2023-05-09T04:26:02;50.93;;;33.67;;
8540;SDS011;4308;51.294;6.590;2023-05-09T04:28:29;48.57;;;32.80;;
8540;SDS011;4308;51.294;6.590;2023-05-09T04:30:57;47.50;;;32.00;;
8540;SDS011;4308;51.294;6.590;2023-05-09T04:33:24;49.63;;;32.43;;
8540;SDS011;4308;51.294;6.590;2023-05-09T04:35:52;44.30;;;31.03;;
8540;SDS011;4308;51.294;6.590;2023-05-09T04:38:20;42.23;;;30.50;;
8540;SDS011;4308;51.294;6.590;2023-05-09T04:40:48;43.07;;;29.17;;
8540;SDS011;4308;51.294;6.590;2023-05-09T04:43:15;41.30;;;29.33;;
8540;SDS011;4308;51.294;6.590;2023-05-09T04:45:43;42.97;;;30.30;;
8540;SDS011;4308;51.294;6.590;2023-05-09T04:48:11;44.10;;;29.10;;
8540;SDS011;4308;51.294;6.590;2023-05-09T04:50:39;40.60;;;29.07;;
8540;SDS011;4308;51.294;6.590;2023-05-09T04:53:07;39.07;;;27.97;;
8540;SDS011;4308;51.294;6.590;2023-05-09T04:55:34;38.77;;;27.40;;
8540;SDS011;4308;51.294;6.590;2023-05-09T04:58:02;36.90;;;27.33;;
8540;SDS011;4308;51.294;6.590;2023-05-09T05:00:29;37.90;;;27.20;;
8540;SDS011;4308;51.294;6.590;2023-05-09T05:02:57;38.87;;;26.87;;
8540;SDS011;4308;51.294;6.590;2023-05-09T05:05:25;38.17;;;26.67;;
8540;SDS011;4308;51.294;6.590;2023-05-09T05:07:53;36.60;;;27.87;;
8540;SDS011;4308;51.294;6.590;2023-05-09T05:10:20;36.90;;;26.30;;
8540;SDS011;4308;51.294;6.590;2023-05-09T05:12:48;36.77;;;26.37;;
8540;SDS011;4308;51.294;6.590;2023-05-09T05:15:15;38.80;;;27.10;;
8540;SDS011;4308;51.294;6.590;2023-05-09T05:17:43;35.03;;;25.73;;
8540;SDS011;4308;51.294;6.590;2023-05-09T05:20:11;38.20;;;27.20;;
8540;SDS011;4308;51.294;6.590;2023-05-09T05:22:38;35.60;;;26.37;;
8540;SDS011;4308;51.294;6.590;2023-05-09T05:25:06;33.77;;;25.13;;
8540;SDS011;4308;51.294;6.590;2023-05-09T05:27:34;37.23;;;26.47;;
8540;SDS011;4308;51.294;6.590;2023-05-09T05:30:02;34.33;;;26.47;;
8540;SDS011;4308;51.294;6.590;2023-05-09T05:32:29;36.23;;;27.23;;
8540;SDS011;4308;51.294;6.590;2023-05-09T05:34:57;39.77;;;27.43;;
8540;SDS011;4308;51.294;6.590;2023-05-09T05:37:24;33.00;;;25.93;;
8540;SDS011;4308;51.294;6.590;2023-05-09T05:39:52;33.17;;;25.40;;
8540;SDS011;4308;51.294;6.590;2023-05-09T05:42:19;35.67;;;27.90;;
8540;SDS011;4308;51.294;6.590;2023-05-09T05:44:47;37.90;;;26.33;;
8540;SDS011;4308;51.294;6.590;2023-05-09T05:47:15;39.30;;;26.93;;
8540;SDS011;4308;51.294;6.590;2023-05-09T05:49:43;36.07;;;27.73;;
8540;SDS011;4308;51.294;6.590;2023-05-09T05:52:10;36.73;;;26.70;;
8540;SDS011;4308;51.294;6.590;2023-05-09T05:54:38;34.93;;;26.30;;
8540;SDS011;4308;51.294;6.590;2023-05-09T05:57:05;39.80;;;25.63;;
8540;SDS011;4308;51.294;6.590;2023-05-09T05:59:33;39.27;;;27.57;;
8540;SDS011;4308;51.294;6.590;2023-05-09T06:02:04;37.93;;;28.20;;
8540;SDS011;4308;51.294;6.590;2023-05-09T06:04:32;38.53;;;27.73;;
8540;SDS011;4308;51.294;6.590;2023-05-09T06:06:59;37.87;;;28.73;;
8540;SDS011;4308;51.294;6.590;2023-05-09T06:09:27;38.77;;;28.37;;
8540;SDS011;4308;51.294;6.590;2023-05-09T06:11:59;37.67;;;27.27;;
8540;SDS011;4308;51.294;6.590;2023-05-09T06:14:27;42.73;;;29.40;;
8540;SDS011;4308;51.294;6.590;2023-05-09T06:16:54;45.47;;;30.37;;
8540;SDS011;4308;51.294;6.590;2023-05-09T06:19:22;41.80;;;32.00;;
8540;SDS011;4308;51.294;6.590;2023-05-09T06:21:49;42.40;;;32.00;;
8540;SDS011;4308;51.294;6.590;2023-05-09T06:24:17;44.27;;;31.53;;
8540;SDS011;4308;51.294;6.590;2023-05-09T06:27:01;37.63;;;30.00;;
8540;SDS011;4308;51.294;6.590;2023-05-09T06:29:28;38.10;;;29.50;;
8540;SDS011;4308;51.294;6.590;2023-05-09T06:31:56;40.77;;;30.50;;
8540;SDS011;4308;51.294;6.590;2023-05-09T06:34:23;37.90;;;29.80;;
8540;SDS011;4308;51.294;6.590;2023-05-09T06:36:51;36.07;;;28.50;;
8540;SDS011;4308;51.294;6.590;2023-05-09T06:39:18;34.53;;;27.27;;
8540;SDS011;4308;51.294;6.590;2023-05-09T06:41:46;31.70;;;27.17;;
8540;SDS011;4308;51.294;6.590;2023-05-09T06:44:13;32.90;;;25.57;;
8540;SDS011;4308;51.294;6.590;2023-05-09T06:46:41;29.10;;;25.07;;
8540;SDS011;4308;51.294;6.590;2023-05-09T06:49:09;27.50;;;24.63;;
8540;SDS011;4308;51.294;6.590;2023-05-09T06:51:36;31.07;;;24.20;;
8540;SDS011;4308;51.294;6.590;2023-05-09T06:54:04;30.47;;;24.83;;
8540;SDS011;4308;51.294;6.590;2023-05-09T06:56:31;30.37;;;25.30;;
8540;SDS011;4308;51.294;6.590;2023-05-09T06:58:59;25.87;;;22.87;;
8540;SDS011;4308;51.294;6.590;2023-05-09T07:01:26;29.43;;;23.27;;
8540;SDS011;4308;51.294;6.590;2023-05-09T07:03:54;30.67;;;24.10;;
8540;SDS011;4308;51.294;6.590;2023-05-09T07:06:22;30.53;;;23.73;;
8540;SDS011;4308;51.294;6.590;2023-05-09T07:08:49;28.03;;;24.10;;
8540;SDS011;4308;51.294;6.590;2023-05-09T07:11:17;28.37;;;24.17;;
8540;SDS011;4308;51.294;6.590;2023-05-09T07:13:44;29.47;;;24.00;;
8540;SDS011;4308;51.294;6.590;2023-05-09T07:16:12;29.57;;;24.93;;
8540;SDS011;4308;51.294;6.590;2023-05-09T07:18:39;28.27;;;23.60;;
8540;SDS011;4308;51.294;6.590;2023-05-09T07:21:07;27.73;;;23.53;;
8540;SDS011;4308;51.294;6.590;2023-05-09T07:23:35;26.43;;;22.33;;
8540;SDS011;4308;51.294;6.590;2023-05-09T07:26:02;26.60;;;22.30;;
8540;SDS011;4308;51.294;6.590;2023-05-09T07:28:30;28.07;;;21.30;;
8540;SDS011;4308;51.294;6.590;2023-05-09T07:30:57;26.03;;;22.43;;
8540;SDS011;4308;51.294;6.590;2023-05-09T07:33:25;24.07;;;20.43;;
8540;SDS011;4308;51.294;6.590;2023-05-09T07:35:52;23.67;;;21.20;;
8540;SDS011;4308;51.294;6.590;2023-05-09T07:38:21;26.10;;;22.03;;
8540;SDS011;4308;51.294;6.590;2023-05-09T07:40:49;24.77;;;21.60;;
8540;SDS011;4308;51.294;6.590;2023-05-09T07:43:16;28.60;;;22.30;;
8540;SDS011;4308;51.294;6.590;2023-05-09T07:45:44;25.87;;;21.43;;
8540;SDS011;4308;51.294;6.590;2023-05-09T07:48:12;22.87;;;20.30;;
8540;SDS011;4308;51.294;6.590;2023-05-09T07:50:39;23.33;;;20.53;;
8540;SDS011;4308;51.294;6.590;2023-05-09T07:53:07;23.53;;;19.67;;
8540;SDS011;4308;51.294;6.590;2023-05-09T07:55:34;21.20;;;18.90;;
8540;SDS011;4308;51.294;6.590;2023-05-09T07:58:02;24.10;;;19.83;;
8540;SDS011;4308;51.294;6.590;2023-05-09T08:00:30;22.13;;;19.63;;
8540;SDS011;4308;51.294;6.590;2023-05-09T08:02:57;23.93;;;19.37;;
8540;SDS011;4308;51.294;6.590;2023-05-09T08:05:25;24.37;;;17.83;;
8540;SDS011;4308;51.294;6.590;2023-05-09T08:07:53;21.00;;;17.67;;
8540;SDS011;4308;51.294;6.590;2023-05-09T08:10:20;17.40;;;14.77;;
8540;SDS011;4308;51.294;6.590;2023-05-09T08:12:48;19.33;;;16.53;;
8540;SDS011;4308;51.294;6.590;2023-05-09T08:15:16;17.87;;;15.67;;
8540;SDS011;4308;51.294;6.590;2023-05-09T08:17:43;17.70;;;14.53;;
8540;SDS011;4308;51.294;6.590;2023-05-09T08:20:11;16.00;;;13.60;;
8540;SDS011;4308;51.294;6.590;2023-05-09T08:22:39;15.50;;;14.00;;
8540;SDS011;4308;51.294;6.590;2023-05-09T08:25:07;12.17;;;10.83;;
8540;SDS011;4308;51.294;6.590;2023-05-09T08:27:37;10.77;;;9.63;;
8540;SDS011;4308;51.294;6.590;2023-05-09T08:30:05;12.90;;;10.67;;
8540;SDS011;4308;51.294;6.590;2023-05-09T08:32:35;8.93;;;6.97;;
8540;SDS011;4308;51.294;6.590;2023-05-09T08:35:03;6.83;;;5.73;;
8540;SDS011;4308;51.294;6.590;2023-05-09T08:37:31;7.70;;;5.50;;
8540;SDS011;4308;51.294;6.590;2023-05-09T08:39:58;9.20;;;6.00;;
8540;SDS011;4308;51.294;6.590;2023-05-09T08:42:26;6.93;;;6.20;;
8540;SDS011;4308;51.294;6.590;2023-05-09T08:44:54;7.27;;;6.23;;
8540;SDS011;4308;51.294;6.590;2023-05-09T08:47:22;10.43;;;8.33;;
8540;SDS011;4308;51.294;6.590;2023-05-09T08:49:50;10.60;;;7.83;;
8540;SDS011;4308;51.294;6.590;2023-05-09T08:52:19;7.93;;;6.10;;
8540;SDS011;4308;51.294;6.590;2023-05-09T08:54:46;7.37;;;5.73;;
8540;SDS011;4308;51.294;6.590;2023-05-09T08:57:14;7.77;;;6.03;;
8540;SDS011;4308;51.294;6.590;2023-05-09T08:59:42;8.93;;;7.07;;
8540;SDS011;4308;51.294;6.590;2023-05-09T09:02:10;10.47;;;7.13;;
8540;SDS011;4308;51.294;6.590;2023-05-09T09:04:38;7.27;;;6.50;;
8540;SDS011;4308;51.294;6.590;2023-05-09T09:07:06;8.90;;;7.17;;
8540;SDS011;4308;51.294;6.590;2023-05-09T09:09:34;9.73;;;6.77;;
8540;SDS011;4308;51.294;6.590;2023-05-09T09:12:04;9.10;;;7.20;;
8540;SDS011;4308;51.294;6.590;2023-05-09T09:14:33;8.77;;;6.63;;
8540;SDS011;4308;51.294;6.590;2023-05-09T09:17:04;8.80;;;6.63;;
8540;SDS011;4308;51.294;6.590;2023-05-09T09:19:32;8.77;;;6.67;;
8540;SDS011;4308;51.294;6.590;2023-05-09T09:22:01;8.20;;;6.30;;
8540;SDS011;4308;51.294;6.590;2023-05-09T09:24:30;5.57;;;5.00;;
8540;SDS011;4308;51.294;6.590;2023-05-09T09:26:57;7.80;;;5.00;;
8540;SDS011;4308;51.294;6.590;2023-05-09T09:29:31;7.97;;;6.10;;
8540;SDS011;4308;51.294;6.590;2023-05-09T09:32:17;5.93;;;4.60;;
8540;SDS011;4308;51.294;6.590;2023-05-09T09:34:50;6.90;;;4.10;;
8540;SDS011;4308;51.294;6.590;2023-05-09T09:37:21;7.13;;;4.57;;
8540;SDS011;4308;51.294;6.590;2023-05-09T09:39:55;5.90;;;4.63;;
8540;SDS011;4308;51.294;6.590;2023-05-09T09:42:22;6.60;;;4.43;;
8540;SDS011;4308;51.294;6.590;2023-05-09T09:44:59;6.10;;;4.87;;
8540;SDS011;4308;51.294;6.590;2023-05-09T09:47:33;7.23;;;4.43;;
8540;SDS011;4308;51.294;6.590;2023-05-09T09:50:08;4.77;;;3.80;;
8540;SDS011;4308;51.294;6.590;2023-05-09T09:52:36;6.00;;;3.77;;
8540;SDS011;4308;51.294;6.590;2023-05-09T09:55:03;6.37;;;3.60;;
8540;SDS011;4308;51.294;6.590;2023-05-09T09:57:35;5.60;;;3.50;;
8540;SDS011;4308;51.294;6.590;2023-05-09T10:00:03;9.63;;;3.90;;
8540;SDS011;4308;51.294;6.590;2023-05-09T10:02:31;4.83;;;4.00;;
8540;SDS011;4308;51.294;6.590;2023-05-09T10:05:06;4.87;;;4.37;;
8540;SDS011;4308;51.294;6.590;2023-05-09T10:07:34;4.93;;;4.00;;
8540;SDS011;4308;51.294;6.590;2023-05-09T10:10:02;5.77;;;4.13;;
8540;SDS011;4308;51.294;6.590;2023-05-09T10:12:29;4.63;;;3.57;;
8540;SDS011;4308;51.294;6.590;2023-05-09T10:14:57;5.57;;;4.10;;
8540;SDS011;4308;51.294;6.590;2023-05-09T10:17:26;6.77;;;4.47;;
8540;SDS011;4308;51.294;6.590;2023-05-09T10:19:55;9.53;;;4.50;;
8540;SDS011;4308;51.294;6.590;2023-05-09T10:22:23;5.97;;;4.10;;
8540;SDS011;4308;51.294;6.590;2023-05-09T10:24:55;7.13;;;4.23;;
8540;SDS011;4308;51.294;6.590;2023-05-09T10:27:29;5.67;;;4.13;;
8540;SDS011;4308;51.294;6.590;2023-05-09T10:32:42;4.50;;;3.80;;
8540;SDS011;4308;51.294;6.590;2023-05-09T10:35:13;4.40;;;4.00;;
8540;SDS011;4308;51.294;6.590;2023-05-09T10:37:46;4.90;;;3.67;;
8540;SDS011;4308;51.294;6.590;2023-05-09T10:40:14;3.53;;;3.00;;
8540;SDS011;4308;51.294;6.590;2023-05-09T10:42:42;7.17;;;3.50;;
8540;SDS011;4308;51.294;6.590;2023-05-09T10:45:10;5.53;;;3.60;;
8540;SDS011;4308;51.294;6.590;2023-05-09T10:47:38;8.80;;;3.67;;
8540;SDS011;4308;51.294;6.590;2023-05-09T10:50:07;8.30;;;4.37;;
8540;SDS011;4308;51.294;6.590;2023-05-09T10:55:21;5.50;;;2.93;;
8540;SDS011;4308;51.294;6.590;2023-05-09T10:57:51;3.83;;;2.97;;
8540;SDS011;4308;51.294;6.590;2023-05-09T11:00:23;4.73;;;3.07;;
8540;SDS011;4308;51.294;6.590;2023-05-09T11:03:06;4.87;;;3.40;;
8540;SDS011;4308;51.294;6.590;2023-05-09T11:05:40;4.23;;;3.40;;
8540;SDS011;4308;51.294;6.590;2023-05-09T11:10:44;5.07;;;2.50;;
8540;SDS011;4308;51.294;6.590;2023-05-09T11:13:12;4.07;;;2.83;;
8540;SDS011;4308;51.294;6.590;2023-05-09T11:15:49;4.10;;;2.70;;
8540;SDS011;4308;51.294;6.590;2023-05-09T11:18:17;6.57;;;2.87;;
8540;SDS011;4308;51.294;6.590;2023-05-09T11:20:45;3.20;;;2.60;;
8540;SDS011;4308;51.294;6.590;2023-05-09T11:23:15;5.33;;;3.30;;
8540;SDS011;4308;51.294;6.590;2023-05-09T11:25:44;4.30;;;2.90;;
8540;SDS011;4308;51.294;6.590;2023-05-09T11:28:28;4.27;;;2.90;;
8540;SDS011;4308;51.294;6.590;2023-05-09T11:33:36;5.77;;;3.40;;
8540;SDS011;4308;51.294;6.590;2023-05-09T11:38:44;5.27;;;3.87;;
8540;SDS011;4308;51.294;6.590;2023-05-09T11:41:12;5.27;;;3.80;;
8540;SDS011;4308;51.294;6.590;2023-05-09T11:43:41;4.40;;;3.50;;
8540;SDS011;4308;51.294;6.590;2023-05-09T11:46:09;5.97;;;3.87;;
8540;SDS011;4308;51.294;6.590;2023-05-09T11:48:37;7.43;;;5.10;;
8540;SDS011;4308;51.294;6.590;2023-05-09T11:51:05;9.13;;;6.93;;
8540;SDS011;4308;51.294;6.590;2023-05-09T11:53:32;10.97;;;7.27;;
8540;SDS011;4308;51.294;6.590;2023-05-09T11:56:01;14.53;;;7.90;;
8540;SDS011;4308;51.294;6.590;2023-05-09T11:58:29;43.37;;;11.23;;
8540;SDS011;4308;51.294;6.590;2023-05-09T12:00:56;28.60;;;9.57;;
8540;SDS011;4308;51.294;6.590;2023-05-09T12:03:24;15.10;;;8.30;;
8540;SDS011;4308;51.294;6.590;2023-05-09T12:05:52;18.87;;;8.80;;
8540;SDS011;4308;51.294;6.590;2023-05-09T12:08:21;25.50;;;8.73;;
8540;SDS011;4308;51.294;6.590;2023-05-09T12:10:48;17.43;;;8.20;;
8540;SDS011;4308;51.294;6.590;2023-05-09T12:13:16;13.17;;;7.67;;
8540;SDS011;4308;51.294;6.590;2023-05-09T12:15:44;8.20;;;7.07;;
8540;SDS011;4308;51.294;6.590;2023-05-09T12:18:12;9.30;;;7.20;;
8540;SDS011;4308;51.294;6.590;2023-05-09T12:20:41;8.23;;;7.43;;
8540;SDS011;4308;51.294;6.590;2023-05-09T12:23:10;9.17;;;7.57;;
8540;SDS011;4308;51.294;6.590;2023-05-09T12:25:37;11.57;;;7.63;;
8540;SDS011;4308;51.294;6.590;2023-05-09T12:28:05;10.70;;;8.43;;
8540;SDS011;4308;51.294;6.590;2023-05-09T12:30:32;13.33;;;10.00;;
8540;SDS011;4308;51.294;6.590;2023-05-09T12:33:00;31.27;;;12.07;;
8540;SDS011;4308;51.294;6.590;2023-05-09T12:35:28;15.37;;;13.07;;
8540;SDS011;4308;51.294;6.590;2023-05-09T12:37:57;18.73;;;13.90;;
8540;SDS011;4308;51.294;6.590;2023-05-09T12:40:24;16.60;;;13.37;;
8540;SDS011;4308;51.294;6.590;2023-05-09T12:42:52;14.80;;;13.27;;
8540;SDS011;4308;51.294;6.590;2023-05-09T12:45:20;13.60;;;10.70;;
8540;SDS011;4308;51.294;6.590;2023-05-09T12:47:50;13.23;;;10.63;;
8540;SDS011;4308;51.294;6.590;2023-05-09T12:50:18;13.47;;;12.10;;
8540;SDS011;4308;51.294;6.590;2023-05-09T12:52:48;12.77;;;11.43;;
8540;SDS011;4308;51.294;6.590;2023-05-09T12:55:29;14.87;;;12.90;;
8540;SDS011;4308;51.294;6.590;2023-05-09T12:58:00;13.83;;;12.43;;
8540;SDS011;4308;51.294;6.590;2023-05-09T13:00:39;14.97;;;12.60;;
8540;SDS011;4308;51.294;6.590;2023-05-09T13:03:18;14.03;;;11.90;;
8540;SDS011;4308;51.294;6.590;2023-05-09T13:05:56;15.30;;;12.53;;
8540;SDS011;4308;51.294;6.590;2023-05-09T13:08:24;13.20;;;11.80;;
8540;SDS011;4308;51.294;6.590;2023-05-09T13:10:51;13.20;;;11.87;;
8540;SDS011;4308;51.294;6.590;2023-05-09T13:13:33;12.63;;;11.43;;
8540;SDS011;4308;51.294;6.590;2023-05-09T13:16:02;12.33;;;11.13;;
8540;SDS011;4308;51.294;6.590;2023-05-09T13:18:30;11.73;;;10.57;;
8540;SDS011;4308;51.294;6.590;2023-05-09T13:20:57;12.60;;;10.73;;
8540;SDS011;4308;51.294;6.590;2023-05-09T13:23:25;12.43;;;9.83;;
8540;SDS011;4308;51.294;6.590;2023-05-09T13:25:52;11.53;;;10.33;;
8540;SDS011;4308;51.294;6.590;2023-05-09T13:28:20;10.40;;;9.50;;
8540;SDS011;4308;51.294;6.590;2023-05-09T13:30:48;11.20;;;10.20;;
8540;SDS011;4308;51.294;6.590;2023-05-09T13:33:15;16.20;;;11.70;;
8540;SDS011;4308;51.294;6.590;2023-05-09T13:35:52;12.07;;;10.80;;
8540;SDS011;4308;51.294;6.590;2023-05-09T13:38:19;12.00;;;10.20;;
8540;SDS011;4308;51.294;6.590;2023-05-09T13:40:47;22.57;;;14.53;;
8540;SDS011;4308;51.294;6.590;2023-05-09T13:43:15;11.23;;;9.97;;
8540;SDS011;4308;51.294;6.590;2023-05-09T13:45:42;14.37;;;11.00;;
8540;SDS011;4308;51.294;6.590;2023-05-09T13:48:10;11.53;;;10.53;;
8540;SDS011;4308;51.294;6.590;2023-05-09T13:50:38;11.97;;;10.90;;
8540;SDS011;4308;51.294;6.590;2023-05-09T13:53:07;12.57;;;10.80;;
8540;SDS011;4308;51.294;6.590;2023-05-09T13:55:35;12.00;;;10.90;;
8540;SDS011;4308;51.294;6.590;2023-05-09T13:58:02;9.87;;;8.97;;
8540;SDS011;4308;51.294;6.590;2023-05-09T14:00:30;9.40;;;8.50;;
8540;SDS011;4308;51.294;6.590;2023-05-09T14:02:58;13.03;;;7.70;;
8540;SDS011;4308;51.294;6.590;2023-05-09T14:05:25;8.00;;;7.20;;
8540;SDS011;4308;51.294;6.590;2023-05-09T14:07:53;8.80;;;8.03;;
8540;SDS011;4308;51.294;6.590;2023-05-09T14:10:21;8.53;;;7.40;;
8540;SDS011;4308;51.294;6.590;2023-05-09T14:12:49;11.53;;;8.10;;
8540;SDS011;4308;51.294;6.590;2023-05-09T14:15:16;8.17;;;7.30;;
8540;SDS011;4308;51.294;6.590;2023-05-09T14:17:45;8.27;;;7.47;;
8540;SDS011;4308;51.294;6.590;2023-05-09T14:20:12;9.13;;;8.23;;
8540;SDS011;4308;51.294;6.590;2023-05-09T14:22:40;9.23;;;7.37;;
8540;SDS011;4308;51.294;6.590;2023-05-09T14:25:08;7.93;;;7.17;;
8540;SDS011;4308;51.294;6.590;2023-05-09T14:27:36;8.17;;;6.33;;
8540;SDS011;4308;51.294;6.590;2023-05-09T14:30:03;6.20;;;5.60;;
8540;SDS011;4308;51.294;6.590;2023-05-09T14:32:31;7.47;;;6.60;;
8540;SDS011;4308;51.294;6.590;2023-05-09T14:34:58;6.33;;;5.50;;
8540;SDS011;4308;51.294;6.590;2023-05-09T14:37:26;5.67;;;5.17;;
8540;SDS011;4308;51.294;6.590;2023-05-09T14:39:54;5.80;;;4.97;;
8540;SDS011;4308;51.294;6.590;2023-05-09T14:42:21;5.00;;;4.37;;
8540;SDS011;4308;51.294;6.590;2023-05-09T14:44:49;4.33;;;3.80;;
8540;SDS011;4308;51.294;6.590;2023-05-09T14:47:16;4.40;;;4.00;;
8540;SDS011;4308;51.294;6.590;2023-05-09T14:49:44;4.10;;;3.70;;
8540;SDS011;4308;51.294;6.590;2023-05-09T14:52:12;4.03;;;3.63;;
8540;SDS011;4308;51.294;6.590;2023-05-09T14:54:39;5.13;;;3.50;;
8540;SDS011;4308;51.294;6.590;2023-05-09T14:57:07;4.20;;;3.80;;
8540;SDS011;4308;51.294;6.590;2023-05-09T14:59:34;3.73;;;3.37;;
8540;SDS011;4308;51.294;6.590;2023-05-09T15:02:03;3.90;;;3.60;;
8540;SDS011;4308;51.294;6.590;2023-05-09T15:04:30;4.50;;;3.90;;
8540;SDS011;4308;51.294;6.590;2023-05-09T15:06:58;3.63;;;3.33;;
8540;SDS011;4308;51.294;6.590;2023-05-09T15:09:25;4.77;;;3.47;;
8540;SDS011;4308;51.294;6.590;2023-05-09T15:11:53;4.00;;;3.33;;
8540;SDS011;4308;51.294;6.590;2023-05-09T15:14:21;4.13;;;3.27;;
8540;SDS011;4308;51.294;6.590;2023-05-09T15:16:48;4.17;;;3.77;;
8540;SDS011;4308;51.294;6.590;2023-05-09T15:19:16;3.43;;;3.13;;
8540;SDS011;4308;51.294;6.590;2023-05-09T15:21:44;4.17;;;3.77;;
8540;SDS011;4308;51.294;6.590;2023-05-09T15:24:11;3.97;;;3.67;;
8540;SDS011;4308;51.294;6.590;2023-05-09T15:26:39;4.60;;;4.20;;